Time;durP1;ratioP1;P1;durP2;ratioP2;P2;SDS_P1;SDS_P2;PMS_P1;PMS_P2;Temp;Humidity;BMP_temperature;BMP_pressure;BME280_temperature;BME280_humidity;BME280_pressure;Samples;Min_cycle;Max_cycle;Signal;HPM_P1;HPM_P2
2022/09/22 00:03:04;;;;;;;;;;;15.70;50.90;;;13.38;56.83;102148.09;12249410;19;19919;-87
2022/09/22 00:07:06;;;;;;;;;;;15.50;50.80;;;13.40;56.79;102154.13;12250314;19;19923;-86
2022/09/22 00:11:22;;;;;;;;;;;15.40;50.70;;;13.36;56.86;102147.28;12250319;19;19946;-87
2022/09/22 00:15:23;;;;;;;;;;;15.50;50.80;;;13.32;56.91;102148.34;12245364;19;19907;-86
2022/09/22 00:19:34;;;;;;;;;;;15.40;50.80;;;13.22;56.79;102135.59;12245961;19;20349;-87
2022/09/22 00:23:37;;;;;;;;;;;15.40;50.70;;;13.26;56.79;102145.09;12245447;19;20318;-86
2022/09/22 00:27:38;;;;;;;;;;;15.30;50.60;;;13.20;56.84;102145.28;12247644;19;19914;-87
2022/09/22 00:31:40;;;;;;;;;;;15.30;50.60;;;13.09;56.82;102130.94;12248041;19;19929;-87
2022/09/22 00:35:42;;;;;;;;;;;15.30;50.60;;;13.05;56.71;102133.72;12246181;19;19923;-87
2022/09/22 00:39:43;;;;;;;;;;;15.20;50.40;;;12.66;56.86;102083.81;12245132;19;20374;-87
2022/09/22 00:44:11;;;;;;;;;;;15.20;50.50;;;13.02;56.98;102146.09;12244790;19;19914;-87
2022/09/22 00:48:13;;;;;;;;;;;15.20;50.50;;;12.55;56.90;102073.78;12256285;19;20314;-87
2022/09/22 00:52:18;;;;;;;;;;;15.40;50.70;;;12.80;56.94;102125.19;12251404;19;19934;-87
2022/09/22 00:56:27;;;;;;;;;;;15.00;50.60;;;12.51;57.03;102090.56;12251859;19;19911;-87
2022/09/22 01:00:28;;;;;;;;;;;15.00;50.50;;;12.69;57.06;102117.78;12251126;19;19971;-86
2022/09/22 01:04:30;;;;;;;;;;;15.30;50.70;;;12.42;56.96;102080.44;12249066;19;19915;-87
2022/09/22 01:08:33;;;;;;;;;;;14.90;50.60;;;12.80;57.02;102144.38;12251620;19;19910;-87
2022/09/22 01:12:35;;;;;;;;;;;14.90;50.60;;;12.72;57.04;102136.00;12248470;19;19919;-87
2022/09/22 01:16:58;;;;;;;;;;;14.80;50.60;;;12.68;57.01;102123.91;12247680;19;20288;-87
2022/09/22 01:21:20;;;;;;;;;;;14.80;50.50;;;12.69;57.01;102138.75;12247780;19;19915;-87
2022/09/22 01:25:42;;;;;;;;;;;14.80;50.50;;;12.57;56.98;102129.59;12245803;19;19915;-87
2022/09/22 01:29:53;;;;;;;;;;;14.80;50.50;;;12.61;57.07;102138.22;12249512;19;19922;-87
2022/09/22 01:34:07;;;;;;;;;;;14.80;50.50;;;12.51;56.79;102121.16;12246638;19;19911;-87
2022/09/22 01:38:24;;;;;;;;;;;14.70;50.50;;;12.49;56.86;102120.34;12249818;19;19927;-87
2022/09/22 01:42:32;;;;;;;;;;;14.70;50.50;;;12.30;56.89;102092.28;12257420;19;19929;-86
2022/09/22 01:46:41;;;;;;;;;;;14.60;50.50;;;12.41;57.08;102125.91;12258834;19;19930;-87
2022/09/22 01:50:47;;;;;;;;;;;14.70;50.60;;;12.36;56.90;102133.94;12256654;19;19927;-87
2022/09/22 01:54:57;;;;;;;;;;;14.90;50.60;;;12.27;56.97;102136.09;12254627;19;19991;-87
2022/09/22 01:59:01;;;;;;;;;;;14.50;50.30;;;12.17;56.97;102135.59;12253517;19;20389;-87
2022/09/22 02:03:20;;;;;;;;;;;14.40;50.30;;;12.03;57.20;102116.94;12255164;19;19975;-86
2022/09/22 02:07:29;;;;;;;;;;;14.60;50.60;;;11.75;57.22;102070.88;12253385;19;20246;-86
2022/09/22 02:11:32;;;;;;;;;;;14.20;50.60;;;11.90;57.16;102104.31;12255953;19;19918;-86
2022/09/22 02:19:54;;;;;;;;;;;14.20;50.80;;;11.99;57.31;102117.97;12253075;19;19914;-86
2022/09/22 02:23:56;;;;;;;;;;;14.20;50.80;;;12.11;57.18;102138.44;12254016;19;19939;-86
2022/09/22 02:27:57;;;;;;;;;;;14.20;50.90;;;12.06;57.19;102129.91;12256452;19;20336;-86
2022/09/22 02:32:01;;;;;;;;;;;14.20;51.00;;;12.00;57.36;102119.69;12254097;19;20676;-87
2022/09/22 02:36:27;;;;;;;;;;;14.20;51.00;;;12.05;57.25;102120.38;12247206;19;19919;-86
2022/09/22 02:40:37;;;;;;;;;;;14.20;51.00;;;12.12;57.29;102134.91;12254060;19;19957;-87
2022/09/22 02:44:53;;;;;;;;;;;14.10;51.00;;;11.95;57.32;102118.09;12252356;19;19962;-87
2022/09/22 02:49:02;;;;;;;;;;;14.20;51.10;;;12.02;57.53;102125.72;12250826;19;19915;-87
2022/09/22 02:53:10;;;;;;;;;;;14.20;51.10;;;12.03;57.41;102124.81;12262519;19;19918;-87
2022/09/22 02:57:11;;;;;;;;;;;14.10;51.00;;;11.73;57.27;102078.78;12258125;19;20334;-87
2022/09/22 03:01:13;;;;;;;;;;;14.30;51.10;;;12.05;57.46;102117.75;12260828;19;19924;-87
2022/09/22 03:05:14;;;;;;;;;;;14.10;51.10;;;11.97;57.30;102093.63;12253698;19;20337;-87
2022/09/22 03:09:16;;;;;;;;;;;14.50;51.20;;;11.77;57.33;102062.94;12259603;19;19939;-87
2022/09/22 03:13:18;;;;;;;;;;;14.60;51.10;;;12.11;57.26;102122.75;12255778;19;19923;-87
2022/09/22 03:17:19;;;;;;;;;;;14.20;50.90;;;11.69;57.28;102058.00;12256389;19;19957;-87
2022/09/22 03:21:21;;;;;;;;;;;14.20;50.80;;;11.65;57.39;102059.91;12255519;19;19982;-86
2022/09/22 03:25:22;;;;;;;;;;;14.20;50.90;;;11.87;57.37;102096.59;12251424;19;20243;-86
2022/09/22 03:29:24;;;;;;;;;;;14.40;50.90;;;11.93;57.39;102109.44;12256196;19;19943;-86
2022/09/22 03:33:26;;;;;;;;;;;14.10;50.80;;;11.90;57.25;102120.03;12251766;19;19922;-87
2022/09/22 03:37:27;;;;;;;;;;;14.10;50.70;;;11.75;57.38;102097.03;12252858;19;19914;-86
2022/09/22 03:41:30;;;;;;;;;;;14.10;50.70;;;11.84;57.39;102108.91;12255058;19;19970;-86
2022/09/22 03:45:32;;;;;;;;;;;14.00;50.70;;;11.84;57.53;102115.00;12251942;19;19936;-87
2022/09/22 03:49:34;;;;;;;;;;;14.00;50.70;;;11.55;57.37;102068.16;12253508;19;19931;-86
2022/09/22 03:53:35;;;;;;;;;;;14.30;50.90;;;11.61;57.45;102088.84;12249932;19;19923;-87
2022/09/22 03:57:38;;;;;;;;;;;14.00;50.60;;;11.69;57.46;102116.44;12251473;19;19955;-86
2022/09/22 04:01:40;;;;;;;;;;;14.10;50.70;;;11.54;57.36;102093.47;12250058;19;19939;-86
2022/09/22 04:05:48;;;;;;;;;;;13.90;50.60;;;11.24;57.50;102043.16;12247130;19;19939;-86
2022/09/22 04:09:49;;;;;;;;;;;13.90;50.60;;;11.62;57.36;102106.25;12250257;19;19927;-86
2022/09/22 04:13:51;;;;;;;;;;;14.20;50.80;;;11.49;57.41;102093.63;12251322;19;20362;-86
2022/09/22 04:17:52;;;;;;;;;;;13.80;50.60;;;11.59;57.41;102109.84;12249395;19;20011;-87
2022/09/22 04:21:55;;;;;;;;;;;13.80;50.60;;;11.38;57.52;102084.47;12250669;19;19938;-86
2022/09/22 04:25:57;;;;;;;;;;;13.70;50.60;;;11.29;57.42;102083.06;12247516;19;19915;-87
2022/09/22 04:29:59;;;;;;;;;;;13.70;50.50;;;11.41;57.45;102113.97;12253500;19;19939;-86
2022/09/22 04:34:01;;;;;;;;;;;13.60;50.50;;;11.41;57.49;102124.44;12246940;19;20270;-86
2022/09/22 04:38:03;;;;;;;;;;;13.60;50.50;;;11.31;57.59;102115.22;12250719;19;19982;-87
2022/09/22 04:42:07;;;;;;;;;;;13.60;50.50;;;10.92;57.56;102057.38;12241860;19;19930;-86
2022/09/22 04:46:08;;;;;;;;;;;13.50;50.40;;;11.14;57.57;102099.28;12242198;19;19914;-86
2022/09/22 04:50:11;;;;;;;;;;;13.40;50.40;;;10.92;57.62;102081.75;12247251;19;19918;-87
2022/09/22 04:54:15;;;;;;;;;;;13.40;50.40;;;11.11;57.70;102109.84;12256639;19;19926;-87
2022/09/22 04:58:16;;;;;;;;;;;13.30;50.40;;;10.95;57.67;102097.31;12256061;19;19926;-86
2022/09/22 05:02:18;;;;;;;;;;;13.30;50.50;;;11.02;57.61;102119.72;12254622;19;19978;-86
2022/09/22 05:06:20;;;;;;;;;;;13.20;50.40;;;11.00;57.51;102120.69;12253010;19;19914;-86
2022/09/22 05:10:26;;;;;;;;;;;13.20;50.40;;;10.77;57.47;102096.19;12252868;19;20333;-86
2022/09/22 05:14:28;;;;;;;;;;;13.40;50.50;;;10.85;57.54;102129.88;12257394;19;19922;-86
2022/09/22 05:18:31;;;;;;;;;;;13.10;50.40;;;10.81;57.72;102130.91;12261538;19;20258;-86
2022/09/22 05:22:32;;;;;;;;;;;13.30;50.50;;;10.71;57.79;102114.69;12265385;19;20358;-87
2022/09/22 05:26:34;;;;;;;;;;;13.00;50.40;;;10.68;57.59;102108.72;12266011;19;19911;-87
2022/09/22 05:30:35;;;;;;;;;;;13.30;50.60;;;10.77;57.50;102129.28;12264660;19;19923;-86
2022/09/22 05:34:37;;;;;;;;;;;13.00;50.40;;;10.75;57.50;102128.50;12262803;19;19914;-86
2022/09/22 05:38:38;;;;;;;;;;;12.90;50.40;;;10.38;57.56;102074.88;12262993;19;19911;-87
2022/09/22 05:42:48;;;;;;;;;;;12.90;50.40;;;10.67;57.76;102134.00;12262974;19;19933;-86
2022/09/22 05:46:50;;;;;;;;;;;12.90;50.50;;;10.66;57.68;102132.25;12265312;19;20292;-87
2022/09/22 05:50:51;;;;;;;;;;;12.80;50.50;;;10.69;57.42;102133.91;12260971;19;19939;-87
2022/09/22 05:54:53;;;;;;;;;;;13.10;50.60;;;10.46;57.51;102103.34;12259807;19;20369;-86
2022/09/22 05:58:54;;;;;;;;;;;12.90;50.50;;;10.63;57.47;102132.38;12259299;19;19918;-86
2022/09/22 06:02:56;;;;;;;;;;;12.90;50.40;;;10.51;57.38;102132.78;12258017;19;20365;-87
2022/09/22 06:06:58;;;;;;;;;;;12.90;50.40;;;10.53;57.44;102136.19;12259201;19;19930;-86
2022/09/22 06:11:00;;;;;;;;;;;12.80;50.40;;;10.40;57.41;102125.28;12257369;19;19927;-85
2022/09/22 06:15:03;;;;;;;;;;;12.80;50.40;;;10.26;57.57;102096.09;12255521;19;19911;-86
2022/09/22 06:19:05;;;;;;;;;;;12.80;50.90;;;10.39;57.52;102131.41;12254863;19;19919;-86
2022/09/22 06:23:07;;;;;;;;;;;12.80;50.60;;;10.47;57.79;102137.22;12257282;19;19911;-87
2022/09/22 06:27:09;;;;;;;;;;;12.80;51.00;;;10.62;57.89;102155.03;12258788;19;19957;-86
2022/09/22 06:31:11;;;;;;;;;;;12.80;50.80;;;10.75;57.84;102150.25;12258933;19;19915;-85
2022/09/22 06:35:12;;;;;;;;;;;12.90;51.00;;;10.73;57.86;102130.31;12253362;19;19910;-85
2022/09/22 06:39:13;;;;;;;;;;;12.90;51.20;;;10.89;58.04;102133.28;12255160;19;19962;-87
2022/09/22 06:43:21;;;;;;;;;;;13.00;51.40;;;11.23;57.96;102159.09;12253466;19;19970;-87
2022/09/22 06:47:23;;;;;;;;;;;13.20;51.60;;;11.26;57.98;102135.44;12261635;19;19911;-87
2022/09/22 06:51:26;;;;;;;;;;;13.30;51.70;;;11.28;57.77;102118.78;12260879;19;19982;-87
2022/09/22 06:55:28;;;;;;;;;;;13.40;51.70;;;11.59;58.03;102156.94;12268553;19;19903;-86
2022/09/22 06:59:29;;;;;;;;;;;14.00;52.00;;;11.66;57.92;102141.84;12261698;19;19919;-87
2022/09/22 07:03:32;;;;;;;;;;;13.90;52.10;;;11.78;57.87;102144.03;12263128;19;19939;-87
2022/09/22 07:07:33;;;;;;;;;;;13.80;52.00;;;11.97;57.86;102148.63;12261016;19;19926;-87
2022/09/22 07:11:35;;;;;;;;;;;14.20;52.20;;;12.01;58.00;102142.34;12261842;19;19919;-87
2022/09/22 07:15:36;;;;;;;;;;;14.40;52.30;;;12.01;57.81;102126.63;12259626;19;19986;-87
2022/09/22 07:19:37;;;;;;;;;;;14.50;52.30;;;12.30;57.97;102159.53;12248346;19;20253;-86
2022/09/22 07:23:40;;;;;;;;;;;14.30;52.10;;;12.45;57.83;102160.69;12259571;19;19919;-87
2022/09/22 07:27:41;;;;;;;;;;;14.40;52.10;;;12.53;57.95;102140.25;12255022;19;19914;-87
2022/09/22 07:31:43;;;;;;;;;;;14.40;52.10;;;12.73;57.88;102149.94;12259420;19;19915;-87
2022/09/22 07:35:44;;;;;;;;;;;14.60;52.10;;;12.59;57.92;102108.59;12256445;19;19926;-87
2022/09/22 07:39:46;;;;;;;;;;;14.70;52.30;;;12.97;57.93;102148.91;12255475;19;20031;-88
2022/09/22 07:43:54;;;;;;;;;;;14.80;52.40;;;13.07;57.93;102131.03;12258676;19;19914;-87
2022/09/22 07:52:16;;;;;;;;;;;15.40;52.20;;;13.30;57.95;102123.97;12257917;19;19982;-87
2022/09/22 07:56:20;;;;;;;;;;;15.20;52.30;;;13.53;58.10;102128.16;12255036;19;19935;-87
2022/09/22 08:00:23;;;;;;;;;;;15.40;52.20;;;13.75;58.18;102128.91;12258707;19;20329;-87
2022/09/22 08:04:25;;;;;;;;;;;15.60;52.40;;;14.00;58.12;102123.34;12253881;19;19966;-87
2022/09/22 08:08:27;;;;;;;;;;;15.90;52.50;;;14.28;58.24;102129.91;12255260;19;19918;-86
2022/09/22 08:12:28;;;;;;;;;;;16.10;52.40;;;14.33;58.02;102099.84;12245601;19;21672;-85
2022/09/22 08:16:35;;;;;;;;;;;16.40;52.30;;;14.72;57.90;102122.53;12255673;19;19922;-85
2022/09/22 08:20:41;;;;;;;;;;;16.80;52.20;;;14.82;57.96;102101.84;12252989;19;19957;-84
2022/09/22 08:24:43;;;;;;;;;;;17.20;52.30;;;15.37;57.85;102156.06;12248454;19;20257;-85
2022/09/22 08:28:46;;;;;;;;;;;17.00;52.10;;;15.38;57.70;102134.06;12253854;19;19915;-87
2022/09/22 08:32:47;;;;;;;;;;;17.30;52.00;;;15.72;57.74;102162.09;12255218;19;20329;-87
2022/09/22 08:36:55;;;;;;;;;;;17.50;51.90;;;15.88;57.64;102157.72;12262956;19;19923;-93
2022/09/22 08:41:12;;;;;;;;;;;17.70;51.70;;;16.06;57.59;102152.34;12280633;19;19915;-93
2022/09/22 08:45:35;;;;;;;;;;;17.80;52.00;;;16.20;57.38;102154.22;12280699;19;19951;-93
2022/09/22 08:54:03;;;;;;;;;;;18.10;51.30;;;16.26;57.39;102162.66;12299801;19;19929;-93
2022/09/22 08:58:13;;;;;;;;;;;18.20;51.00;;;16.23;57.42;102157.53;12305814;19;19923;-93
2022/09/22 09:02:32;;;;;;;;;;;18.40;51.10;;;16.20;57.31;102155.06;12300383;19;19914;-93
2022/09/22 09:07:11;;;;;;;;;;;18.20;50.70;;;16.20;57.59;102155.06;12296517;19;20017;-93
2022/09/22 09:11:50;;;;;;;;;;;18.30;50.70;;;16.23;57.37;102152.28;12300500;19;19923;-94
2022/09/22 09:16:12;;;;;;;;;;;18.30;50.70;;;16.32;57.61;102157.00;12290177;19;19911;-93
2022/09/22 09:20:15;;;;;;;;;;;18.30;50.70;;;16.40;57.56;102147.84;12293428;19;19907;-94
2022/09/22 09:24:26;;;;;;;;;;;18.40;50.80;;;16.49;57.48;102142.03;12297660;19;19914;-93
2022/09/22 09:28:41;;;;;;;;;;;18.40;50.70;;;16.54;57.30;102129.41;12294127;19;19918;-93
2022/09/22 09:32:53;;;;;;;;;;;18.60;50.80;;;16.68;57.01;102139.16;12294589;19;19914;-93
2022/09/22 09:37:09;;;;;;;;;;;18.70;50.40;;;16.68;57.28;102129.47;12294181;19;19929;-94
2022/09/22 09:41:20;;;;;;;;;;;18.70;50.20;;;16.70;56.88;102124.09;12295108;19;20304;-93
2022/09/22 09:45:30;;;;;;;;;;;18.90;49.80;;;16.86;57.19;102132.84;12289704;19;19969;-93
2022/09/22 09:49:32;;;;;;;;;;;18.80;50.20;;;16.93;56.83;102120.13;12294475;19;19911;-93
2022/09/22 09:53:45;;;;;;;;;;;19.20;50.40;;;17.06;57.01;102126.38;12296469;19;19907;-93
2022/09/22 10:00:30;;;;;;;;;;;19.00;50.20;;;17.32;57.05;102138.00;12288452;19;19911;-93
2022/09/22 10:02:47;;;;;;;;;;;19.10;49.90;;;17.17;57.07;102076.41;12294887;19;19918;-93
2022/09/22 10:06:48;;;;;;;;;;;19.30;50.30;;;17.67;56.87;102132.34;12295933;19;19968;-93
2022/09/22 10:10:57;;;;;;;;;;;19.40;49.70;;;17.81;56.73;102123.56;12292268;19;19916;-93
2022/09/22 10:15:00;;;;;;;;;;;19.90;50.10;;;17.76;56.76;102078.06;12287468;19;20337;-92
2022/09/22 10:19:16;;;;;;;;;;;19.90;49.80;;;17.89;56.71;102077.19;12280343;19;19907;-93
2022/09/22 10:23:20;;;;;;;;;;;20.20;50.00;;;18.41;56.35;102138.22;12293383;19;19919;-94
2022/09/22 10:27:24;;;;;;;;;;;20.10;50.40;;;18.08;56.35;102076.00;12291217;19;19914;-93
2022/09/22 10:31:26;;;;;;;;;;;20.50;50.00;;;18.22;56.41;102107.66;12288502;19;19943;-94
2022/09/22 10:35:29;;;;;;;;;;;20.30;49.90;;;18.48;56.38;102129.78;12287471;19;19915;-93
2022/09/22 10:39:50;;;;;;;;;;;20.40;49.30;;;18.48;56.31;102118.34;12287664;19;19923;-94
2022/09/22 10:43:59;;;;;;;;;;;20.50;49.10;;;18.47;56.33;102114.88;12285157;19;19915;-93
2022/09/22 10:48:15;;;;;;;;;;;20.50;49.00;;;18.50;56.38;102114.66;12285179;19;19940;-93
2022/09/22 10:52:36;;;;;;;;;;;20.60;49.30;;;18.60;56.30;102137.84;12284597;19;19915;-93
2022/09/22 10:56:42;;;;;;;;;;;20.60;48.30;;;18.36;56.07;102114.69;12287353;19;19929;-93
2022/09/22 11:00:46;;;;;;;;;;;20.60;48.50;;;18.33;55.97;102120.19;12286733;19;19923;-93
2022/09/22 11:05:09;;;;;;;;;;;20.60;48.60;;;18.28;55.88;102120.53;12286003;19;19914;-93
2022/09/22 11:13:58;;;;;;;;;;;20.40;48.90;;;18.28;55.92;102124.94;12259141;19;19914;-86
2022/09/22 11:18:17;;;;;;;;;;;20.40;49.40;;;18.09;55.88;102097.06;12255738;19;19931;-87
2022/09/22 11:22:50;;;;;;;;;;;20.30;48.40;;;18.14;55.96;102105.53;12263804;19;19915;-86
2022/09/22 11:26:55;;;;;;;;;;;20.30;49.00;;;18.12;55.63;102104.81;12259584;19;19914;-88
2022/09/22 11:31:36;;;;;;;;;;;20.30;49.00;;;18.16;55.49;102115.16;12253067;19;19978;-87
2022/09/22 11:36:05;;;;;;;;;;;20.20;48.90;;;18.07;55.55;102106.88;12251271;19;19922;-88
2022/09/22 11:40:31;;;;;;;;;;;20.10;48.50;;;17.96;55.76;102084.72;12251364;19;20330;-87
2022/09/22 11:44:35;;;;;;;;;;;20.10;48.70;;;18.07;55.37;102098.97;12251175;19;20266;-88
2022/09/22 11:49:00;;;;;;;;;;;20.10;48.50;;;17.99;55.31;102079.25;12256226;19;19923;-88
2022/09/22 11:53:26;;;;;;;;;;;20.00;48.70;;;18.13;55.56;102098.56;12254745;19;19918;-88
2022/09/22 11:57:32;;;;;;;;;;;20.20;48.50;;;18.18;55.44;102078.91;12260493;19;19993;-88
2022/09/22 12:01:37;;;;;;;;;;;20.10;48.20;;;18.22;55.44;102072.44;12258297;19;19931;-88
2022/09/22 12:05:53;;;;;;;;;;;20.20;47.10;;;18.13;55.19;102072.13;12263001;19;19943;-88
2022/09/22 12:09:59;;;;;;;;;;;20.20;46.50;;;18.15;55.27;102066.75;12267323;19;19929;-88
2022/09/22 12:14:02;;;;;;;;;;;20.20;47.50;;;18.28;55.25;102074.69;12262966;19;20325;-88
2022/09/22 12:18:27;;;;;;;;;;;20.20;47.70;;;18.37;55.06;102063.50;12262207;19;19922;-87
2022/09/22 12:22:36;;;;;;;;;;;20.20;47.70;;;18.45;55.35;102061.19;12262915;19;19919;-87
2022/09/22 12:26:39;;;;;;;;;;;20.30;47.80;;;18.43;55.16;102041.94;12262948;19;19934;-88
2022/09/22 12:30:51;;;;;;;;;;;20.40;47.80;;;18.54;55.25;102047.34;12261031;19;19911;-88
2022/09/22 12:34:57;;;;;;;;;;;20.40;47.90;;;18.55;55.22;102034.94;12248947;19;19923;-87
2022/09/22 12:39:10;;;;;;;;;;;20.50;47.70;;;18.66;55.07;102039.50;12249267;19;19915;-86
2022/09/22 12:43:19;;;;;;;;;;;20.60;47.80;;;18.57;54.94;102017.19;12241187;19;19963;-86
2022/09/22 12:47:33;;;;;;;;;;;20.50;47.70;;;18.76;54.94;102030.88;12243630;19;20263;-87
2022/09/22 12:51:34;;;;;;;;;;;20.60;47.50;;;18.89;54.96;102035.34;12253977;19;19926;-86
2022/09/22 12:55:38;;;;;;;;;;;20.80;47.20;;;18.56;54.34;101968.72;12248700;19;19915;-86
2022/09/22 12:59:40;;;;;;;;;;;20.80;48.50;;;19.06;54.81;102039.44;12246171;19;19952;-86
2022/09/22 13:03:50;;;;;;;;;;;20.90;47.40;;;19.04;54.34;102015.75;12251843;19;19918;-87
2022/09/22 13:07:54;;;;;;;;;;;20.90;48.00;;;19.20;54.24;102026.09;12259926;19;20306;-87
2022/09/22 13:12:11;;;;;;;;;;;21.00;47.40;;;19.34;53.84;102033.06;12260207;19;19923;-87
2022/09/22 13:16:15;;;;;;;;;;;21.10;47.70;;;19.30;53.77;102036.88;12257782;19;19966;-86
2022/09/22 13:20:29;;;;;;;;;;;21.20;46.40;;;19.15;53.75;102023.75;12257098;19;19914;-86
2022/09/22 13:24:30;;;;;;;;;;;21.10;46.70;;;19.05;53.88;102006.00;12256239;19;20417;-86
2022/09/22 13:28:32;;;;;;;;;;;21.10;47.00;;;18.96;53.95;102003.03;12261403;19;19939;-86
2022/09/22 13:32:33;;;;;;;;;;;21.00;47.00;;;19.07;53.77;102015.53;12257285;19;20393;-86
2022/09/22 13:36:35;;;;;;;;;;;21.00;46.70;;;18.98;53.95;102005.56;12266347;19;19915;-86
2022/09/22 13:40:36;;;;;;;;;;;21.30;47.00;;;18.77;53.97;101984.94;12268608;19;19922;-87
2022/09/22 13:44:40;;;;;;;;;;;21.00;46.40;;;18.88;53.77;101997.44;12269853;19;19971;-87
2022/09/22 13:48:42;;;;;;;;;;;20.90;46.60;;;18.64;53.63;101965.56;12269386;19;19959;-87
2022/09/22 13:52:44;;;;;;;;;;;21.10;46.80;;;18.81;53.94;101993.50;12271002;19;19921;-87
2022/09/22 13:56:46;;;;;;;;;;;21.20;46.90;;;18.50;53.96;101947.16;12270250;19;19926;-87
2022/09/22 14:01:11;;;;;;;;;;;20.80;46.40;;;18.76;53.98;101999.13;12260298;19;19952;-86
2022/09/22 14:05:28;;;;;;;;;;;20.90;46.90;;;18.64;53.80;101984.06;12256406;19;20435;-86
2022/09/22 14:09:30;;;;;;;;;;;20.70;47.00;;;18.60;53.69;101981.72;12252034;19;20793;-84
2022/09/22 14:13:36;;;;;;;;;;;20.70;47.00;;;18.64;53.78;101993.81;12250647;19;19922;-87
2022/09/22 14:17:38;;;;;;;;;;;20.70;47.10;;;18.56;53.77;101984.59;12254820;19;19903;-86
2022/09/22 14:21:57;;;;;;;;;;;20.60;47.20;;;18.42;54.04;101971.47;12254914;19;19949;-85
2022/09/22 14:26:02;;;;;;;;;;;20.60;47.30;;;18.35;53.81;101971.03;12250505;19;19974;-86
2022/09/22 14:30:04;;;;;;;;;;;20.50;47.40;;;18.32;53.94;101971.25;12248491;19;19923;-86
2022/09/22 14:34:08;;;;;;;;;;;20.40;47.40;;;18.21;54.15;101959.72;12248086;19;19927;-86
2022/09/22 14:38:17;;;;;;;;;;;20.70;47.60;;;18.13;54.09;101962.88;12249974;19;19926;-86
2022/09/22 14:42:24;;;;;;;;;;;20.30;47.50;;;18.13;53.95;101958.44;12248998;19;20277;-85
2022/09/22 14:46:36;;;;;;;;;;;20.20;47.50;;;18.19;54.15;101975.66;12246193;19;19998;-86
2022/09/22 14:50:46;;;;;;;;;;;20.20;47.60;;;18.03;54.04;101959.16;12252077;19;19990;-86
2022/09/22 14:54:48;;;;;;;;;;;20.10;47.70;;;18.03;54.07;101954.69;12241741;19;19939;-85
2022/09/22 14:58:52;;;;;;;;;;;20.10;47.70;;;17.89;54.02;101952.97;12248098;19;19975;-85
2022/09/22 15:02:54;;;;;;;;;;;20.10;47.80;;;17.62;53.94;101916.00;12247028;19;19915;-85
2022/09/22 15:06:57;;;;;;;;;;;20.00;47.70;;;17.79;54.22;101945.75;12259816;19;19922;-85
2022/09/22 15:10:59;;;;;;;;;;;19.90;47.70;;;17.82;54.17;101966.69;12256851;19;19918;-85
2022/09/22 15:15:15;;;;;;;;;;;19.90;47.80;;;17.69;54.34;101946.34;12248026;19;21357;-85
2022/09/22 15:19:16;;;;;;;;;;;19.90;47.80;;;17.58;54.12;101951.50;12250352;19;19946;-85
2022/09/22 15:23:38;;;;;;;;;;;19.90;47.90;;;17.44;54.17;101956.81;12253093;19;19946;-85
2022/09/22 15:27:39;;;;;;;;;;;19.70;47.80;;;17.41;54.26;101965.78;12242867;19;19943;-85
2022/09/22 15:31:41;;;;;;;;;;;19.50;47.80;;;17.20;54.06;101943.38;12250479;19;19926;-86
2022/09/22 15:35:44;;;;;;;;;;;19.50;47.80;;;17.15;54.26;101935.78;12247935;19;19911;-86
2022/09/22 15:39:45;;;;;;;;;;;19.40;47.80;;;17.05;54.04;101939.94;12250687;19;19925;-84
2022/09/22 15:43:47;;;;;;;;;;;19.30;47.80;;;17.09;53.95;101953.78;12256375;19;19911;-85
2022/09/22 15:47:52;;;;;;;;;;;19.40;47.90;;;17.07;54.14;101958.31;12257149;19;20258;-85
2022/09/22 15:51:57;;;;;;;;;;;19.10;47.80;;;16.90;54.20;101941.72;12256018;19;19918;-85
2022/09/22 15:56:01;;;;;;;;;;;19.10;47.80;;;16.72;54.28;101921.75;12249131;19;20321;-85
2022/09/22 16:00:07;;;;;;;;;;;19.00;47.80;;;16.74;54.06;101944.47;12254614;19;19906;-85
2022/09/22 16:04:13;;;;;;;;;;;18.90;47.70;;;16.62;54.29;101939.94;12254851;19;19911;-84
2022/09/22 16:08:15;;;;;;;;;;;18.80;47.60;;;16.59;54.16;101948.88;12255365;19;19922;-84
2022/09/22 16:12:17;;;;;;;;;;;18.70;47.60;;;16.31;54.17;101914.56;12246178;19;19918;-84
2022/09/22 16:16:18;;;;;;;;;;;19.00;47.80;;;16.40;54.09;101937.75;12250669;19;19968;-86
2022/09/22 16:20:19;;;;;;;;;;;18.60;47.70;;;16.24;54.03;101922.00;12249444;19;20337;-85
2022/09/22 16:24:21;;;;;;;;;;;18.40;47.50;;;16.29;54.19;101948.94;12243305;19;19926;-85
2022/09/22 16:28:22;;;;;;;;;;;18.40;47.50;;;16.19;54.10;101941.66;12250286;19;19939;-85
2022/09/22 16:32:25;;;;;;;;;;;18.30;47.60;;;15.87;53.98;101913.63;12247809;19;20552;-84
2022/09/22 16:36:28;;;;;;;;;;;18.20;47.50;;;15.94;54.16;101935.22;12227503;19;19919;-84
2022/09/22 16:40:30;;;;;;;;;;;18.30;47.60;;;15.82;54.18;101946.44;12240681;19;19960;-85
2022/09/22 16:44:31;;;;;;;;;;;17.90;47.50;;;15.67;54.25;101935.00;12247985;19;20237;-86
2022/09/22 16:48:33;;;;;;;;;;;18.10;47.60;;;15.56;54.17;101940.88;12245550;19;19919;-86
2022/09/22 16:52:34;;;;;;;;;;;17.80;47.60;;;15.22;54.16;101890.09;12252103;19;19931;-86
2022/09/22 16:56:36;;;;;;;;;;;17.70;47.50;;;15.39;54.06;101938.31;12247736;19;19922;-86
2022/09/22 17:00:38;;;;;;;;;;;17.70;47.60;;;15.29;54.24;101932.75;12248546;19;19911;-86
2022/09/22 17:04:39;;;;;;;;;;;17.40;47.40;;;15.22;54.07;101939.25;12244385;19;20337;-86
2022/09/22 17:08:42;;;;;;;;;;;17.40;47.40;;;15.04;54.14;101934.09;12259550;19;20558;-86
2022/09/22 17:12:44;;;;;;;;;;;17.20;47.30;;;14.99;54.23;101940.53;12250193;19;20338;-87
2022/09/22 17:16:55;;;;;;;;;;;17.10;47.30;;;14.78;54.31;101938.13;12256101;19;19986;-86
2022/09/22 17:20:57;;;;;;;;;;;17.10;47.30;;;14.75;54.33;101932.19;12247248;19;20322;-86
2022/09/22 17:24:58;;;;;;;;;;;17.20;47.50;;;14.25;54.37;101865.53;12251546;19;20342;-86
2022/09/22 17:29:00;;;;;;;;;;;16.90;47.50;;;14.52;54.24;101913.19;12260840;19;20314;-85
2022/09/22 17:33:02;;;;;;;;;;;16.80;47.50;;;14.63;54.31;101943.34;12257136;19;19923;-86
2022/09/22 17:37:03;;;;;;;;;;;16.70;47.60;;;14.39;54.17;101920.00;12257081;19;19923;-85
2022/09/22 17:41:06;;;;;;;;;;;16.60;47.60;;;14.41;54.18;101939.16;12249788;19;19934;-86
2022/09/22 17:45:09;;;;;;;;;;;16.60;47.60;;;14.34;54.26;101940.44;12251207;19;19918;-84
2022/09/22 17:57:51;;;;;;;;;;;16.30;47.60;;;13.95;54.08;101925.75;12255630;19;19925;-86
2022/09/22 18:01:52;;;;;;;;;;;16.20;47.50;;;13.87;54.35;101927.91;12256574;19;19911;-86
2022/09/22 18:05:55;;;;;;;;;;;16.10;47.50;;;13.68;54.25;101907.81;12254471;19;20326;-86
2022/09/22 18:09:56;;;;;;;;;;;16.00;47.50;;;13.55;54.41;101914.59;12256962;19;20318;-86
2022/09/22 18:13:57;;;;;;;;;;;15.90;47.60;;;13.46;54.43;101909.78;12257196;19;19927;-86
2022/09/22 18:17:59;;;;;;;;;;;15.80;47.60;;;13.56;54.32;101944.31;12258262;19;19922;-86
2022/09/22 18:22:07;;;;;;;;;;;15.70;47.60;;;13.47;54.39;101942.97;12256369;19;19929;-86
2022/09/22 18:26:08;;;;;;;;;;;15.70;47.70;;;13.22;54.27;101920.50;12250382;19;19987;-86
2022/09/22 18:30:10;;;;;;;;;;;16.00;47.70;;;12.70;54.24;101857.38;12257685;19;19918;-86
2022/09/22 18:34:11;;;;;;;;;;;15.50;47.50;;;13.15;54.43;101947.94;12254753;19;19915;-86
2022/09/22 18:38:13;;;;;;;;;;;15.40;47.50;;;13.02;54.45;101938.94;12258145;19;19907;-86
2022/09/22 18:42:15;;;;;;;;;;;15.20;47.50;;;12.96;54.50;101945.31;12258171;19;19933;-86
2022/09/22 18:46:18;;;;;;;;;;;15.10;47.50;;;12.49;54.46;101881.94;12259358;19;20226;-86
2022/09/22 18:50:19;;;;;;;;;;;15.10;47.60;;;12.51;54.40;101907.16;12259263;19;19919;-86
2022/09/22 18:54:21;;;;;;;;;;;15.00;47.60;;;12.65;54.47;101947.63;12252322;19;19935;-86